Aérodrome :
LOGIN :

S'inscrire | Disclaimer

   EN    FR    IT 

 










Légende :    VFR   VFR Marginal   IFR   IFR Intensif   IFR Très Intensif
Visi : 
Plafond : 
>= 8 km
>= 3000ft
5 à 8 km
1000 à 3000 ft
1500m à 5 km
500 à 1000 ft
800 à 1500m
200 à 500 ft
< 800m
< 200 ft
Symboles :   Orages  Brouillard  Fortes neiges  Fortes précipitations  Vent > 20 kt
SIGMETs :   Divers  Orages  Givrage  Turbulence  Onde Orograph.  Cendres Volcan.






- Altitude de l'aérodrome : 375 ft
- Code IATA : MST


EHBK - Maastricht Aachen

DERNIER METAR :
  • 290425Z AUTO 33007KT 9999 FEW022 03/M01 Q1025 NOSIG

METARs EXPIRÉS :
  • 290355Z AUTO 35007KT 320V020 9999 BKN022 BKN027 BKN031 03/M01 Q1025
  • 290325Z AUTO 35007KT 320V030 9999 SCT023 BKN026 03/M01 Q1026
  • 290255Z AUTO 34007KT 300V010 9999 FEW029 OVC046 03/M02 Q1026
  • 290225Z AUTO 34005KT 300V010 9999 FEW028 SCT039 OVC045 03/M02 Q1026
  • 290155Z AUTO 35006KT 9999 FEW035 SCT039 BKN045 02/M02 Q1026

TAF TAF EHBK
Valide du 29 à 00h jusqu'au 30 à 06h UTC


282319Z 2900/3006 01014KT 9999 SCT030
BECMG 2902/2905 34008KT
BECMG 2907/2909 02017KT
TEMPO 2910/2917 03020G32KT
PROB40
TEMPO 2910/2914 3000 SHSNRAGS BKN012 SCT020CB
BECMG 2920/2923 03007KT



MET'MAP, la Météo Aéronautique d'un coup d'oeil ! - Copyright ORBIFLY Décembre 2007 - Disclaimer

ORBIFLY MET'MAP TEAM :

Programmation & Développement : Alexandra Zaïnal
Sur une idée originale de : Baudouin d'Aumeries
Assistance à la programmation : Marc-Olivier Méhu
Soutien technique & logistique : Manuel Goepfert

Contact : metmap@orbifly.com




SOURCES & CREDITS :

   NOAA